sensor_id;sensor_type;location;lat;lon;timestamp;temperature;humidity
7784;DHT22;19359;51.402;6.778;2024-01-15T00:02:13;1.00;99.90
7784;DHT22;19359;51.402;6.778;2024-01-15T00:04:40;0.80;99.90
7784;DHT22;19359;51.402;6.778;2024-01-15T00:07:06;0.90;99.90
7784;DHT22;19359;51.402;6.778;2024-01-15T00:09:33;1.00;99.90
7784;DHT22;19359;51.402;6.778;2024-01-15T00:12:00;1.00;99.90
7784;DHT22;19359;51.402;6.778;2024-01-15T00:14:28;1.10;99.90
7784;DHT22;19359;51.402;6.778;2024-01-15T00:16:56;1.00;99.90
7784;DHT22;19359;51.402;6.778;2024-01-15T00:19:23;1.10;99.90
7784;DHT22;19359;51.402;6.778;2024-01-15T00:21:50;1.10;99.90
7784;DHT22;19359;51.402;6.778;2024-01-15T00:24:17;1.00;99.90
7784;DHT22;19359;51.402;6.778;2024-01-15T00:26:44;1.20;99.90
7784;DHT22;19359;51.402;6.778;2024-01-15T00:29:11;1.20;99.90
7784;DHT22;19359;51.402;6.778;2024-01-15T00:31:38;1.20;99.90
7784;DHT22;19359;51.402;6.778;2024-01-15T00:34:06;1.20;99.90
7784;DHT22;19359;51.402;6.778;2024-01-15T00:36:33;1.20;99.90
7784;DHT22;19359;51.402;6.778;2024-01-15T00:39:00;1.20;99.90
7784;DHT22;19359;51.402;6.778;2024-01-15T00:46:21;1.30;99.90
7784;DHT22;19359;51.402;6.778;2024-01-15T00:48:48;1.30;99.90
7784;DHT22;19359;51.402;6.778;2024-01-15T00:51:16;1.20;99.90
7784;DHT22;19359;51.402;6.778;2024-01-15T00:53:43;1.30;99.90
7784;DHT22;19359;51.402;6.778;2024-01-15T00:58:37;1.30;99.90
7784;DHT22;19359;51.402;6.778;2024-01-15T01:01:04;1.30;99.90
7784;DHT22;19359;51.402;6.778;2024-01-15T01:05:58;1.20;99.90
7784;DHT22;19359;51.402;6.778;2024-01-15T01:08:26;1.30;99.90
7784;DHT22;19359;51.402;6.778;2024-01-15T01:10:52;1.30;99.90
7784;DHT22;19359;51.402;6.778;2024-01-15T01:13:19;1.30;99.90
7784;DHT22;19359;51.402;6.778;2024-01-15T01:15:46;1.40;99.90
7784;DHT22;19359;51.402;6.778;2024-01-15T01:23:07;1.30;99.90
7784;DHT22;19359;51.402;6.778;2024-01-15T01:28:03;1.80;99.90
7784;DHT22;19359;51.402;6.778;2024-01-15T01:30:30;1.30;99.90
7784;DHT22;19359;51.402;6.778;2024-01-15T01:32:56;1.30;99.90
7784;DHT22;19359;51.402;6.778;2024-01-15T01:37:50;1.30;99.90
7784;DHT22;19359;51.402;6.778;2024-01-15T01:40:20;1.30;99.90
7784;DHT22;19359;51.402;6.778;2024-01-15T01:42:49;1.30;99.90
7784;DHT22;19359;51.402;6.778;2024-01-15T01:45:16;1.30;99.90
7784;DHT22;19359;51.402;6.778;2024-01-15T01:50:12;1.30;99.90
7784;DHT22;19359;51.402;6.778;2024-01-15T01:52:40;1.30;99.90
7784;DHT22;19359;51.402;6.778;2024-01-15T01:55:11;1.30;99.90
7784;DHT22;19359;51.402;6.778;2024-01-15T01:57:39;1.30;99.90
7784;DHT22;19359;51.402;6.778;2024-01-15T02:00:11;1.30;99.90
7784;DHT22;19359;51.402;6.778;2024-01-15T02:02:38;0.90;99.90
7784;DHT22;19359;51.402;6.778;2024-01-15T02:05:06;1.20;99.90
7784;DHT22;19359;51.402;6.778;2024-01-15T02:07:35;1.40;99.90
7784;DHT22;19359;51.402;6.778;2024-01-15T02:10:02;1.30;99.90
7784;DHT22;19359;51.402;6.778;2024-01-15T02:12:29;1.30;99.90
7784;DHT22;19359;51.402;6.778;2024-01-15T02:14:56;1.30;99.90
7784;DHT22;19359;51.402;6.778;2024-01-15T02:17:24;1.30;99.90
7784;DHT22;19359;51.402;6.778;2024-01-15T02:22:21;1.40;99.90
7784;DHT22;19359;51.402;6.778;2024-01-15T02:24:49;1.40;99.90
7784;DHT22;19359;51.402;6.778;2024-01-15T02:27:16;1.40;99.90
7784;DHT22;19359;51.402;6.778;2024-01-15T02:29:44;1.40;99.90
7784;DHT22;19359;51.402;6.778;2024-01-15T02:32:12;1.40;99.90
7784;DHT22;19359;51.402;6.778;2024-01-15T02:34:38;1.40;99.90
7784;DHT22;19359;51.402;6.778;2024-01-15T02:37:05;1.90;99.90
7784;DHT22;19359;51.402;6.778;2024-01-15T02:39:32;1.40;99.90
7784;DHT22;19359;51.402;6.778;2024-01-15T02:42:00;1.50;99.90
7784;DHT22;19359;51.402;6.778;2024-01-15T02:44:27;1.40;99.90
7784;DHT22;19359;51.402;6.778;2024-01-15T02:46:56;1.50;99.90
7784;DHT22;19359;51.402;6.778;2024-01-15T02:49:23;1.50;99.90
7784;DHT22;19359;51.402;6.778;2024-01-15T02:51:49;1.50;99.90
7784;DHT22;19359;51.402;6.778;2024-01-15T02:56:43;1.50;99.90
7784;DHT22;19359;51.402;6.778;2024-01-15T02:59:11;1.40;99.90
7784;DHT22;19359;51.402;6.778;2024-01-15T03:01:38;1.40;99.90
7784;DHT22;19359;51.402;6.778;2024-01-15T03:04:05;1.50;99.90
7784;DHT22;19359;51.402;6.778;2024-01-15T03:06:32;1.90;99.90
7784;DHT22;19359;51.402;6.778;2024-01-15T03:08:58;1.40;99.90
7784;DHT22;19359;51.402;6.778;2024-01-15T03:11:26;1.40;99.90
7784;DHT22;19359;51.402;6.778;2024-01-15T03:13:52;1.40;99.90
7784;DHT22;19359;51.402;6.778;2024-01-15T03:16:21;1.50;99.90
7784;DHT22;19359;51.402;6.778;2024-01-15T03:18:47;1.40;99.90
7784;DHT22;19359;51.402;6.778;2024-01-15T03:21:14;1.50;99.90
7784;DHT22;19359;51.402;6.778;2024-01-15T03:23:41;1.40;99.90
7784;DHT22;19359;51.402;6.778;2024-01-15T03:26:08;1.50;99.90
7784;DHT22;19359;51.402;6.778;2024-01-15T03:28:34;1.50;99.90
7784;DHT22;19359;51.402;6.778;2024-01-15T03:31:01;1.50;99.90
7784;DHT22;19359;51.402;6.778;2024-01-15T03:33:29;1.50;99.90
7784;DHT22;19359;51.402;6.778;2024-01-15T03:35:56;1.50;99.90
7784;DHT22;19359;51.402;6.778;2024-01-15T03:38:23;2.00;99.90
7784;DHT22;19359;51.402;6.778;2024-01-15T03:40:50;1.50;99.90
7784;DHT22;19359;51.402;6.778;2024-01-15T03:43:17;1.50;99.90
7784;DHT22;19359;51.402;6.778;2024-01-15T03:45:43;1.50;99.90
7784;DHT22;19359;51.402;6.778;2024-01-15T03:48:11;1.40;99.90
7784;DHT22;19359;51.402;6.778;2024-01-15T03:53:06;1.60;99.90
7784;DHT22;19359;51.402;6.778;2024-01-15T03:55:35;1.50;99.90
7784;DHT22;19359;51.402;6.778;2024-01-15T03:58:02;1.50;99.90
7784;DHT22;19359;51.402;6.778;2024-01-15T04:00:29;1.30;99.90
7784;DHT22;19359;51.402;6.778;2024-01-15T04:02:56;1.50;99.90
7784;DHT22;19359;51.402;6.778;2024-01-15T04:05:23;1.40;99.90
7784;DHT22;19359;51.402;6.778;2024-01-15T04:07:51;1.40;99.90
7784;DHT22;19359;51.402;6.778;2024-01-15T04:10:18;1.50;99.90
7784;DHT22;19359;51.402;6.778;2024-01-15T04:17:40;1.10;99.90
7784;DHT22;19359;51.402;6.778;2024-01-15T04:20:08;1.40;99.90
7784;DHT22;19359;51.402;6.778;2024-01-15T04:22:37;1.40;99.90
7784;DHT22;19359;51.402;6.778;2024-01-15T04:25:06;1.40;99.90
7784;DHT22;19359;51.402;6.778;2024-01-15T04:27:33;1.40;99.90
7784;DHT22;19359;51.402;6.778;2024-01-15T04:30:00;1.40;99.90
7784;DHT22;19359;51.402;6.778;2024-01-15T04:32:27;1.30;99.90
7784;DHT22;19359;51.402;6.778;2024-01-15T04:34:54;1.40;99.90
7784;DHT22;19359;51.402;6.778;2024-01-15T04:37:21;1.40;99.90
7784;DHT22;19359;51.402;6.778;2024-01-15T04:39:48;1.30;99.90
7784;DHT22;19359;51.402;6.778;2024-01-15T04:42:19;1.30;99.90
7784;DHT22;19359;51.402;6.778;2024-01-15T04:44:46;1.50;99.90
7784;DHT22;19359;51.402;6.778;2024-01-15T04:49:40;1.40;99.90
7784;DHT22;19359;51.402;6.778;2024-01-15T04:52:07;1.40;99.90
7784;DHT22;19359;51.402;6.778;2024-01-15T04:54:35;1.30;99.90
7784;DHT22;19359;51.402;6.778;2024-01-15T04:57:02;1.40;99.90
7784;DHT22;19359;51.402;6.778;2024-01-15T05:01:58;1.40;99.90
7784;DHT22;19359;51.402;6.778;2024-01-15T05:04:25;1.30;99.90
7784;DHT22;19359;51.402;6.778;2024-01-15T05:06:53;1.40;99.90
7784;DHT22;19359;51.402;6.778;2024-01-15T05:09:19;1.40;99.90
7784;DHT22;19359;51.402;6.778;2024-01-15T05:14:13;1.40;99.90
7784;DHT22;19359;51.402;6.778;2024-01-15T05:16:46;1.40;99.90
7784;DHT22;19359;51.402;6.778;2024-01-15T05:19:13;1.40;99.90
7784;DHT22;19359;51.402;6.778;2024-01-15T05:24:08;2.00;99.90
7784;DHT22;19359;51.402;6.778;2024-01-15T05:29:02;1.30;99.90
7784;DHT22;19359;51.402;6.778;2024-01-15T05:31:29;1.50;99.90
7784;DHT22;19359;51.402;6.778;2024-01-15T05:33:57;1.20;99.90
7784;DHT22;19359;51.402;6.778;2024-01-15T05:36:23;1.50;99.90
7784;DHT22;19359;51.402;6.778;2024-01-15T05:41:18;1.50;99.90
7784;DHT22;19359;51.402;6.778;2024-01-15T05:48:39;1.50;99.90
7784;DHT22;19359;51.402;6.778;2024-01-15T05:51:07;1.50;99.90
7784;DHT22;19359;51.402;6.778;2024-01-15T05:53:37;1.60;99.90
7784;DHT22;19359;51.402;6.778;2024-01-15T05:56:06;1.60;99.90
7784;DHT22;19359;51.402;6.778;2024-01-15T05:58:32;1.70;99.90
7784;DHT22;19359;51.402;6.778;2024-01-15T06:01:00;1.60;99.90
7784;DHT22;19359;51.402;6.778;2024-01-15T06:03:27;1.70;99.90
7784;DHT22;19359;51.402;6.778;2024-01-15T06:05:54;1.60;99.90
7784;DHT22;19359;51.402;6.778;2024-01-15T06:08:22;1.60;99.90
7784;DHT22;19359;51.402;6.778;2024-01-15T06:10:49;1.60;99.90
7784;DHT22;19359;51.402;6.778;2024-01-15T06:13:16;1.70;99.90
7784;DHT22;19359;51.402;6.778;2024-01-15T06:18:09;1.60;99.90
7784;DHT22;19359;51.402;6.778;2024-01-15T06:20:36;2.00;99.90
7784;DHT22;19359;51.402;6.778;2024-01-15T06:23:04;1.60;99.90
7784;DHT22;19359;51.402;6.778;2024-01-15T06:25:32;1.60;99.90
7784;DHT22;19359;51.402;6.778;2024-01-15T06:27:59;1.60;99.90
7784;DHT22;19359;51.402;6.778;2024-01-15T06:32:53;1.70;99.90
7784;DHT22;19359;51.402;6.778;2024-01-15T06:35:20;1.70;99.90
7784;DHT22;19359;51.402;6.778;2024-01-15T06:37:46;1.60;99.90
7784;DHT22;19359;51.402;6.778;2024-01-15T06:40:13;1.60;99.90
7784;DHT22;19359;51.402;6.778;2024-01-15T06:42:42;1.60;99.90
7784;DHT22;19359;51.402;6.778;2024-01-15T06:45:09;1.60;99.90
7784;DHT22;19359;51.402;6.778;2024-01-15T06:47:35;1.70;99.90
7784;DHT22;19359;51.402;6.778;2024-01-15T06:50:03;1.70;99.90
7784;DHT22;19359;51.402;6.778;2024-01-15T06:52:30;1.60;99.90
7784;DHT22;19359;51.402;6.778;2024-01-15T06:54:57;1.70;99.90
7784;DHT22;19359;51.402;6.778;2024-01-15T06:57:23;1.60;99.90
7784;DHT22;19359;51.402;6.778;2024-01-15T06:59:52;1.60;99.90
7784;DHT22;19359;51.402;6.778;2024-01-15T07:02:18;1.60;99.90
7784;DHT22;19359;51.402;6.778;2024-01-15T07:04:45;1.50;99.90
7784;DHT22;19359;51.402;6.778;2024-01-15T07:07:12;1.50;99.90
7784;DHT22;19359;51.402;6.778;2024-01-15T07:09:39;1.80;99.90
7784;DHT22;19359;51.402;6.778;2024-01-15T07:12:06;1.60;99.90
7784;DHT22;19359;51.402;6.778;2024-01-15T07:14:32;1.50;99.90
7784;DHT22;19359;51.402;6.778;2024-01-15T07:17:01;1.50;99.90
7784;DHT22;19359;51.402;6.778;2024-01-15T07:19:27;1.50;99.90
7784;DHT22;19359;51.402;6.778;2024-01-15T07:21:54;1.50;99.90
7784;DHT22;19359;51.402;6.778;2024-01-15T07:24:21;1.50;99.90
7784;DHT22;19359;51.402;6.778;2024-01-15T07:26:48;1.50;99.90
7784;DHT22;19359;51.402;6.778;2024-01-15T07:29:14;1.50;99.90
7784;DHT22;19359;51.402;6.778;2024-01-15T07:31:48;1.60;99.90
7784;DHT22;19359;51.402;6.778;2024-01-15T07:34:16;1.60;99.90
7784;DHT22;19359;51.402;6.778;2024-01-15T07:36:44;1.50;99.90
7784;DHT22;19359;51.402;6.778;2024-01-15T07:39:11;1.50;99.90
7784;DHT22;19359;51.402;6.778;2024-01-15T07:41:37;1.50;99.90
7784;DHT22;19359;51.402;6.778;2024-01-15T07:44:05;1.50;99.90
7784;DHT22;19359;51.402;6.778;2024-01-15T07:51:27;1.30;99.90
7784;DHT22;19359;51.402;6.778;2024-01-15T07:53:54;1.30;99.90
7784;DHT22;19359;51.402;6.778;2024-01-15T07:56:21;1.40;99.90
7784;DHT22;19359;51.402;6.778;2024-01-15T08:11:05;1.30;99.90
7784;DHT22;19359;51.402;6.778;2024-01-15T08:13:32;1.30;99.90
7784;DHT22;19359;51.402;6.778;2024-01-15T08:23:22;1.10;99.90
7784;DHT22;19359;51.402;6.778;2024-01-15T08:28:19;1.10;99.90
7784;DHT22;19359;51.402;6.778;2024-01-15T08:35:40;1.10;99.90
7784;DHT22;19359;51.402;6.778;2024-01-15T08:38:07;1.10;99.90
7784;DHT22;19359;51.402;6.778;2024-01-15T08:40:34;1.10;99.90
7784;DHT22;19359;51.402;6.778;2024-01-15T08:45:29;1.20;99.90
7784;DHT22;19359;51.402;6.778;2024-01-15T08:47:56;1.10;99.90
7784;DHT22;19359;51.402;6.778;2024-01-15T08:50:23;1.10;99.90
7784;DHT22;19359;51.402;6.778;2024-01-15T08:52:50;1.20;99.90
7784;DHT22;19359;51.402;6.778;2024-01-15T08:55:17;1.10;99.90
7784;DHT22;19359;51.402;6.778;2024-01-15T08:57:44;1.00;99.90
7784;DHT22;19359;51.402;6.778;2024-01-15T09:00:13;0.80;99.90
7784;DHT22;19359;51.402;6.778;2024-01-15T09:02:42;0.50;99.90
7784;DHT22;19359;51.402;6.778;2024-01-15T09:05:09;0.80;99.90
7784;DHT22;19359;51.402;6.778;2024-01-15T09:10:04;0.80;99.90
7784;DHT22;19359;51.402;6.778;2024-01-15T09:12:32;0.80;99.90
7784;DHT22;19359;51.402;6.778;2024-01-15T09:14:58;0.80;99.90
7784;DHT22;19359;51.402;6.778;2024-01-15T09:17:26;0.80;99.90
7784;DHT22;19359;51.402;6.778;2024-01-15T09:19:53;0.90;99.90
7784;DHT22;19359;51.402;6.778;2024-01-15T09:22:20;0.80;99.90
7784;DHT22;19359;51.402;6.778;2024-01-15T09:24:47;1.30;99.90
7784;DHT22;19359;51.402;6.778;2024-01-15T09:27:14;1.00;99.90
7784;DHT22;19359;51.402;6.778;2024-01-15T09:32:11;1.10;99.90
7784;DHT22;19359;51.402;6.778;2024-01-15T09:34:39;1.40;99.90
7784;DHT22;19359;51.402;6.778;2024-01-15T09:37:06;1.80;99.90
7784;DHT22;19359;51.402;6.778;2024-01-15T09:39:33;1.20;99.90
7784;DHT22;19359;51.402;6.778;2024-01-15T09:42:01;1.50;99.90
7784;DHT22;19359;51.402;6.778;2024-01-15T09:44:29;0.80;99.90
7784;DHT22;19359;51.402;6.778;2024-01-15T09:46:56;1.30;99.90
7784;DHT22;19359;51.402;6.778;2024-01-15T09:51:52;1.30;99.90
7784;DHT22;19359;51.402;6.778;2024-01-15T09:54:20;1.30;99.90
7784;DHT22;19359;51.402;6.778;2024-01-15T09:56:47;0.90;99.90
7784;DHT22;19359;51.402;6.778;2024-01-15T09:59:15;1.30;99.90
7784;DHT22;19359;51.402;6.778;2024-01-15T10:01:43;1.40;99.90
7784;DHT22;19359;51.402;6.778;2024-01-15T10:09:07;1.40;99.90
7784;DHT22;19359;51.402;6.778;2024-01-15T10:11:34;1.40;99.90
7784;DHT22;19359;51.402;6.778;2024-01-15T10:14:03;1.40;99.90
7784;DHT22;19359;51.402;6.778;2024-01-15T10:16:30;1.00;99.90
7784;DHT22;19359;51.402;6.778;2024-01-15T10:18:57;1.40;99.90
7784;DHT22;19359;51.402;6.778;2024-01-15T10:28:52;1.40;99.90
7784;DHT22;19359;51.402;6.778;2024-01-15T10:31:20;1.50;99.90
7784;DHT22;19359;51.402;6.778;2024-01-15T10:33:49;1.50;99.90
7784;DHT22;19359;51.402;6.778;2024-01-15T10:36:16;1.40;99.90
7784;DHT22;19359;51.402;6.778;2024-01-15T10:38:44;1.40;99.90
7784;DHT22;19359;51.402;6.778;2024-01-15T10:41:14;1.50;99.90
7784;DHT22;19359;51.402;6.778;2024-01-15T10:43:42;1.00;99.90
7784;DHT22;19359;51.402;6.778;2024-01-15T10:46:10;1.40;99.90
7784;DHT22;19359;51.402;6.778;2024-01-15T10:48:39;1.50;99.90
7784;DHT22;19359;51.402;6.778;2024-01-15T10:51:06;1.60;99.90
7784;DHT22;19359;51.402;6.778;2024-01-15T10:53:37;1.60;99.90
7784;DHT22;19359;51.402;6.778;2024-01-15T10:58:34;1.70;99.90
7784;DHT22;19359;51.402;6.778;2024-01-15T11:01:03;1.30;99.90
7784;DHT22;19359;51.402;6.778;2024-01-15T11:03:30;1.70;99.90
7784;DHT22;19359;51.402;6.778;2024-01-15T11:05:58;1.60;99.90
7784;DHT22;19359;51.402;6.778;2024-01-15T11:10:54;1.70;99.90
7784;DHT22;19359;51.402;6.778;2024-01-15T11:13:40;1.70;99.90
7784;DHT22;19359;51.402;6.778;2024-01-15T11:16:09;1.80;99.90
7784;DHT22;19359;51.402;6.778;2024-01-15T11:18:39;1.40;99.90
7784;DHT22;19359;51.402;6.778;2024-01-15T11:21:23;1.90;99.90
7784;DHT22;19359;51.402;6.778;2024-01-15T11:23:52;2.10;99.90
7784;DHT22;19359;51.402;6.778;2024-01-15T11:28:55;1.80;99.90
7784;DHT22;19359;51.402;6.778;2024-01-15T11:31:28;2.00;99.90
7784;DHT22;19359;51.402;6.778;2024-01-15T11:33:55;2.10;99.90
7784;DHT22;19359;51.402;6.778;2024-01-15T11:41:19;1.80;99.90
7784;DHT22;19359;51.402;6.778;2024-01-15T11:43:46;3.00;99.90
7784;DHT22;19359;51.402;6.778;2024-01-15T11:48:44;1.10;99.90
7784;DHT22;19359;51.402;6.778;2024-01-15T11:51:12;1.50;99.90
7784;DHT22;19359;51.402;6.778;2024-01-15T11:53:43;1.50;99.90
7784;DHT22;19359;51.402;6.778;2024-01-15T11:56:15;1.60;99.90
7784;DHT22;19359;51.402;6.778;2024-01-15T11:58:43;1.70;99.90
7784;DHT22;19359;51.402;6.778;2024-01-15T12:01:10;1.70;99.90
7784;DHT22;19359;51.402;6.778;2024-01-15T12:03:37;1.50;99.90
7784;DHT22;19359;51.402;6.778;2024-01-15T12:06:07;1.80;99.90
7784;DHT22;19359;51.402;6.778;2024-01-15T12:11:06;2.00;99.90
7784;DHT22;19359;51.402;6.778;2024-01-15T12:13:33;2.00;99.90
7784;DHT22;19359;51.402;6.778;2024-01-15T12:16:01;2.10;99.90
7784;DHT22;19359;51.402;6.778;2024-01-15T12:18:29;2.10;99.90
7784;DHT22;19359;51.402;6.778;2024-01-15T12:20:56;2.30;99.90
7784;DHT22;19359;51.402;6.778;2024-01-15T12:23:24;2.20;99.90
7784;DHT22;19359;51.402;6.778;2024-01-15T12:25:52;2.20;99.90
7784;DHT22;19359;51.402;6.778;2024-01-15T12:28:19;2.30;99.90
7784;DHT22;19359;51.402;6.778;2024-01-15T12:30:47;2.30;99.90
7784;DHT22;19359;51.402;6.778;2024-01-15T12:33:20;2.40;99.90
7784;DHT22;19359;51.402;6.778;2024-01-15T12:35:47;2.40;99.90
7784;DHT22;19359;51.402;6.778;2024-01-15T12:38:14;2.40;99.90
7784;DHT22;19359;51.402;6.778;2024-01-15T12:40:44;2.30;99.90
7784;DHT22;19359;51.402;6.778;2024-01-15T12:43:12;2.30;99.90
7784;DHT22;19359;51.402;6.778;2024-01-15T12:45:39;2.30;99.90
7784;DHT22;19359;51.402;6.778;2024-01-15T12:48:07;2.30;99.90
7784;DHT22;19359;51.402;6.778;2024-01-15T12:50:34;2.30;99.90
7784;DHT22;19359;51.402;6.778;2024-01-15T12:53:01;2.30;99.90
7784;DHT22;19359;51.402;6.778;2024-01-15T13:00:23;2.20;99.90
7784;DHT22;19359;51.402;6.778;2024-01-15T13:02:51;2.20;99.90
7784;DHT22;19359;51.402;6.778;2024-01-15T13:05:19;2.20;99.90
7784;DHT22;19359;51.402;6.778;2024-01-15T13:07:46;2.20;99.90
7784;DHT22;19359;51.402;6.778;2024-01-15T13:10:13;2.30;99.90
7784;DHT22;19359;51.402;6.778;2024-01-15T13:12:40;2.20;99.90
7784;DHT22;19359;51.402;6.778;2024-01-15T13:15:09;2.30;99.90
7784;DHT22;19359;51.402;6.778;2024-01-15T13:17:37;2.20;99.90
7784;DHT22;19359;51.402;6.778;2024-01-15T13:20:05;2.30;99.90
7784;DHT22;19359;51.402;6.778;2024-01-15T13:22:32;2.30;99.90
7784;DHT22;19359;51.402;6.778;2024-01-15T13:24:59;2.10;99.90
7784;DHT22;19359;51.402;6.778;2024-01-15T13:29:53;2.20;99.90
7784;DHT22;19359;51.402;6.778;2024-01-15T13:32:24;2.10;99.90
7784;DHT22;19359;51.402;6.778;2024-01-15T13:34:52;2.10;99.90
7784;DHT22;19359;51.402;6.778;2024-01-15T13:37:19;2.10;99.90
7784;DHT22;19359;51.402;6.778;2024-01-15T13:39:45;2.20;99.90
7784;DHT22;19359;51.402;6.778;2024-01-15T13:42:13;2.20;99.90
7784;DHT22;19359;51.402;6.778;2024-01-15T13:44:40;2.20;99.90
7784;DHT22;19359;51.402;6.778;2024-01-15T13:47:07;2.20;99.90
7784;DHT22;19359;51.402;6.778;2024-01-15T13:49:35;2.10;99.90
7784;DHT22;19359;51.402;6.778;2024-01-15T13:52:03;2.10;99.90
7784;DHT22;19359;51.402;6.778;2024-01-15T13:54:30;2.30;99.90
7784;DHT22;19359;51.402;6.778;2024-01-15T13:56:57;2.30;99.90
7784;DHT22;19359;51.402;6.778;2024-01-15T13:59:24;2.30;99.90
7784;DHT22;19359;51.402;6.778;2024-01-15T14:01:51;2.30;99.90
7784;DHT22;19359;51.402;6.778;2024-01-15T14:04:18;2.30;99.90
7784;DHT22;19359;51.402;6.778;2024-01-15T14:06:46;2.20;99.90
7784;DHT22;19359;51.402;6.778;2024-01-15T14:09:13;2.10;99.90
7784;DHT22;19359;51.402;6.778;2024-01-15T14:11:40;2.30;99.90
7784;DHT22;19359;51.402;6.778;2024-01-15T14:14:07;2.20;99.90
7784;DHT22;19359;51.402;6.778;2024-01-15T14:16:34;2.20;99.90
7784;DHT22;19359;51.402;6.778;2024-01-15T14:19:02;2.10;99.90
7784;DHT22;19359;51.402;6.778;2024-01-15T14:21:28;2.10;99.90
7784;DHT22;19359;51.402;6.778;2024-01-15T14:23:57;2.10;99.90
7784;DHT22;19359;51.402;6.778;2024-01-15T14:26:23;2.00;99.90
7784;DHT22;19359;51.402;6.778;2024-01-15T14:28:50;2.00;99.90
7784;DHT22;19359;51.402;6.778;2024-01-15T14:31:17;2.10;99.90
7784;DHT22;19359;51.402;6.778;2024-01-15T14:33:45;2.20;99.90
7784;DHT22;19359;51.402;6.778;2024-01-15T14:36:12;2.10;99.90
7784;DHT22;19359;51.402;6.778;2024-01-15T14:38:39;2.20;99.90
7784;DHT22;19359;51.402;6.778;2024-01-15T14:41:07;2.10;99.90
7784;DHT22;19359;51.402;6.778;2024-01-15T14:43:34;2.10;99.90
7784;DHT22;19359;51.402;6.778;2024-01-15T14:46:01;2.10;99.90
7784;DHT22;19359;51.402;6.778;2024-01-15T14:48:27;2.10;99.90
7784;DHT22;19359;51.402;6.778;2024-01-15T14:53:22;1.70;99.90
7784;DHT22;19359;51.402;6.778;2024-01-15T14:58:17;2.10;99.90
7784;DHT22;19359;51.402;6.778;2024-01-15T15:00:47;2.00;99.90
7784;DHT22;19359;51.402;6.778;2024-01-15T15:05:41;2.00;99.90
7784;DHT22;19359;51.402;6.778;2024-01-15T15:08:08;1.90;99.90
7784;DHT22;19359;51.402;6.778;2024-01-15T15:10:37;1.90;99.90
7784;DHT22;19359;51.402;6.778;2024-01-15T15:13:06;1.70;99.90
7784;DHT22;19359;51.402;6.778;2024-01-15T15:15:34;1.90;99.90
7784;DHT22;19359;51.402;6.778;2024-01-15T15:18:01;1.90;99.90
7784;DHT22;19359;51.402;6.778;2024-01-15T15:20:28;1.80;99.90
7784;DHT22;19359;51.402;6.778;2024-01-15T15:25:22;1.80;99.90
7784;DHT22;19359;51.402;6.778;2024-01-15T15:27:49;1.90;99.90
7784;DHT22;19359;51.402;6.778;2024-01-15T15:30:16;1.80;99.90
7784;DHT22;19359;51.402;6.778;2024-01-15T15:35:11;1.80;99.90
7784;DHT22;19359;51.402;6.778;2024-01-15T15:37:38;1.50;99.90
7784;DHT22;19359;51.402;6.778;2024-01-15T15:40:05;1.70;99.90
7784;DHT22;19359;51.402;6.778;2024-01-15T15:42:34;1.60;99.90
7784;DHT22;19359;51.402;6.778;2024-01-15T15:45:01;1.50;99.90
7784;DHT22;19359;51.402;6.778;2024-01-15T15:47:28;1.50;99.90
7784;DHT22;19359;51.402;6.778;2024-01-15T15:49:56;1.50;99.90
7784;DHT22;19359;51.402;6.778;2024-01-15T15:52:23;1.40;99.90
7784;DHT22;19359;51.402;6.778;2024-01-15T15:54:50;1.40;99.90
7784;DHT22;19359;51.402;6.778;2024-01-15T15:57:17;1.40;99.90
7784;DHT22;19359;51.402;6.778;2024-01-15T15:59:44;1.40;99.90
7784;DHT22;19359;51.402;6.778;2024-01-15T16:02:11;1.20;99.90
7784;DHT22;19359;51.402;6.778;2024-01-15T16:04:38;1.20;99.90
7784;DHT22;19359;51.402;6.778;2024-01-15T16:07:06;0.80;99.90
7784;DHT22;19359;51.402;6.778;2024-01-15T16:09:35;1.10;99.90
7784;DHT22;19359;51.402;6.778;2024-01-15T16:12:02;1.10;99.90
7784;DHT22;19359;51.402;6.778;2024-01-15T16:14:28;1.10;99.90
7784;DHT22;19359;51.402;6.778;2024-01-15T16:16:56;1.10;99.90
7784;DHT22;19359;51.402;6.778;2024-01-15T16:19:24;1.00;99.90
7784;DHT22;19359;51.402;6.778;2024-01-15T16:21:51;1.10;99.90
7784;DHT22;19359;51.402;6.778;2024-01-15T16:24:19;1.20;99.90
7784;DHT22;19359;51.402;6.778;2024-01-15T16:29:16;1.10;99.90
7784;DHT22;19359;51.402;6.778;2024-01-15T16:31:42;0.90;99.90
7784;DHT22;19359;51.402;6.778;2024-01-15T16:36:36;1.70;99.90
7784;DHT22;19359;51.402;6.778;2024-01-15T16:41:32;0.70;99.90
7784;DHT22;19359;51.402;6.778;2024-01-15T16:43:59;1.00;99.90
7784;DHT22;19359;51.402;6.778;2024-01-15T16:46:26;1.10;99.90
7784;DHT22;19359;51.402;6.778;2024-01-15T16:48:52;1.10;99.90
7784;DHT22;19359;51.402;6.778;2024-01-15T16:51:19;1.10;99.90
7784;DHT22;19359;51.402;6.778;2024-01-15T16:53:46;1.00;99.90
7784;DHT22;19359;51.402;6.778;2024-01-15T16:56:13;1.00;99.90
7784;DHT22;19359;51.402;6.778;2024-01-15T16:58:41;0.90;99.90
7784;DHT22;19359;51.402;6.778;2024-01-15T17:01:08;1.00;99.90
7784;DHT22;19359;51.402;6.778;2024-01-15T17:03:34;1.00;99.90
7784;DHT22;19359;51.402;6.778;2024-01-15T17:06:01;0.90;99.90
7784;DHT22;19359;51.402;6.778;2024-01-15T17:08:29;0.80;99.90
7784;DHT22;19359;51.402;6.778;2024-01-15T17:13:23;0.90;99.90
7784;DHT22;19359;51.402;6.778;2024-01-15T17:15:51;0.80;99.90
7784;DHT22;19359;51.402;6.778;2024-01-15T17:20:45;0.90;99.90
7784;DHT22;19359;51.402;6.778;2024-01-15T17:23:12;0.80;99.90
7784;DHT22;19359;51.402;6.778;2024-01-15T17:25:39;0.90;99.90
7784;DHT22;19359;51.402;6.778;2024-01-15T17:28:06;0.90;99.90
7784;DHT22;19359;51.402;6.778;2024-01-15T17:30:33;0.90;99.90
7784;DHT22;19359;51.402;6.778;2024-01-15T17:33:01;1.10;99.90
7784;DHT22;19359;51.402;6.778;2024-01-15T17:35:28;1.00;99.90
7784;DHT22;19359;51.402;6.778;2024-01-15T17:37:55;0.90;99.90
7784;DHT22;19359;51.402;6.778;2024-01-15T17:47:43;1.10;99.90
7784;DHT22;19359;51.402;6.778;2024-01-15T17:50:12;1.10;99.90
7784;DHT22;19359;51.402;6.778;2024-01-15T17:52:38;1.20;99.90
7784;DHT22;19359;51.402;6.778;2024-01-15T17:55:06;1.10;99.90
7784;DHT22;19359;51.402;6.778;2024-01-15T18:02:30;1.10;99.90
7784;DHT22;19359;51.402;6.778;2024-01-15T18:04:57;1.20;99.90
7784;DHT22;19359;51.402;6.778;2024-01-15T18:12:21;1.30;99.90
7784;DHT22;19359;51.402;6.778;2024-01-15T18:14:47;1.30;99.90
7784;DHT22;19359;51.402;6.778;2024-01-15T18:17:14;1.00;99.90
7784;DHT22;19359;51.402;6.778;2024-01-15T18:19:42;1.20;99.90
7784;DHT22;19359;51.402;6.778;2024-01-15T18:22:09;1.30;99.90
7784;DHT22;19359;51.402;6.778;2024-01-15T18:24:37;1.30;99.90
7784;DHT22;19359;51.402;6.778;2024-01-15T18:27:04;1.30;99.90
7784;DHT22;19359;51.402;6.778;2024-01-15T18:29:33;1.30;99.90
7784;DHT22;19359;51.402;6.778;2024-01-15T18:39:21;1.30;99.90
7784;DHT22;19359;51.402;6.778;2024-01-15T18:41:50;1.30;99.90
7784;DHT22;19359;51.402;6.778;2024-01-15T18:44:17;1.30;99.90
7784;DHT22;19359;51.402;6.778;2024-01-15T18:46:43;1.70;99.90
7784;DHT22;19359;51.402;6.778;2024-01-15T18:49:11;1.30;99.90
7784;DHT22;19359;51.402;6.778;2024-01-15T18:51:38;1.20;99.90
7784;DHT22;19359;51.402;6.778;2024-01-15T18:54:05;1.20;99.90
7784;DHT22;19359;51.402;6.778;2024-01-15T18:56:32;1.20;99.90
7784;DHT22;19359;51.402;6.778;2024-01-15T18:59:02;1.20;99.90
7784;DHT22;19359;51.402;6.778;2024-01-15T19:01:30;1.10;99.90
7784;DHT22;19359;51.402;6.778;2024-01-15T19:03:57;1.10;99.90
7784;DHT22;19359;51.402;6.778;2024-01-15T19:06:24;1.10;99.90
7784;DHT22;19359;51.402;6.778;2024-01-15T19:08:52;1.20;99.90
7784;DHT22;19359;51.402;6.778;2024-01-15T19:13:47;1.10;99.90